Time,TemperatureF,DewpointF,PressureIn,WindDirection,WindDirectionDegrees,WindSpeedMPH,WindSpeedGustMPH,Humidity,HourlyPrecipIn,Conditions,Clouds,dailyrainin,SoftwareType,DateUTC
2013-07-23 00:01:00,64.0,42.0,29.96,NW,326,0.0,1.0,44,0.00,,,0.00,,2013-07-23 06:01:00,
2013-07-23 00:11:00,64.0,42.0,29.96,NW,326,0.0,1.0,44,0.00,,,0.00,,2013-07-23 06:11:00,
2013-07-23 00:21:00,62.0,43.0,29.95,NNE,24,0.0,1.0,49,0.00,,,0.00,,2013-07-23 06:21:00,
2013-07-23 00:33:00,62.0,43.0,29.95,NNE,24,0.0,1.0,49,0.00,,,0.00,,2013-07-23 06:33:00,
2013-07-23 00:42:00,62.0,43.0,29.95,NNE,24,0.0,1.0,49,0.00,,,0.00,,2013-07-23 06:42:00,
2013-07-23 00:52:00,61.0,42.0,29.97,NNE,24,0.0,0.0,50,0.00,,,0.00,,2013-07-23 06:52:00,
2013-07-23 01:01:00,61.0,42.0,29.97,NNE,24,0.0,0.0,50,0.00,,,0.00,,2013-07-23 07:01:00,
2013-07-23 01:11:00,61.0,42.0,29.97,NNE,24,0.0,0.0,50,0.00,,,0.00,,2013-07-23 07:11:00,
2013-07-23 01:21:00,59.0,42.0,29.95,NNE,24,0.0,0.0,53,0.00,,,0.00,,2013-07-23 07:21:00,
2013-07-23 01:32:00,59.0,42.0,29.95,NNE,24,0.0,0.0,53,0.00,,,0.00,,2013-07-23 07:32:00,
2013-07-23 01:42:00,59.0,42.0,29.95,NNE,24,0.0,0.0,53,0.00,,,0.00,,2013-07-23 07:42:00,
2013-07-23 01:52:00,59.0,42.0,29.95,NNE,24,0.0,1.0,54,0.00,,,0.00,,2013-07-23 07:52:00,
2013-07-23 02:01:00,59.0,42.0,29.95,NNE,24,0.0,1.0,54,0.00,,,0.00,,2013-07-23 08:01:00,
2013-07-23 02:11:00,59.0,42.0,29.95,NNE,24,0.0,1.0,54,0.00,,,0.00,,2013-07-23 08:11:00,
2013-07-23 02:21:00,59.0,42.0,29.96,WNW,303,0.0,2.0,53,0.00,,,0.00,,2013-07-23 08:21:00,
2013-07-23 02:32:00,59.0,42.0,29.96,WNW,303,0.0,2.0,53,0.00,,,0.00,,2013-07-23 08:32:00,
2013-07-23 02:43:00,59.0,42.0,29.96,WNW,303,0.0,2.0,53,0.00,,,0.00,,2013-07-23 08:43:00,
2013-07-23 02:52:00,58.0,41.0,29.96,NW,318,0.0,1.0,54,0.00,,,0.00,,2013-07-23 08:52:00,
2013-07-23 03:01:00,58.0,41.0,29.96,NW,318,0.0,1.0,54,0.00,,,0.00,,2013-07-23 09:01:00,
2013-07-23 03:11:00,58.0,41.0,29.96,NW,318,0.0,1.0,54,0.00,,,0.00,,2013-07-23 09:11:00,
2013-07-23 03:22:00,58.0,42.0,29.96,WNW,291,0.0,1.0,55,0.00,,,0.00,,2013-07-23 09:22:00,
2013-07-23 03:33:00,58.0,42.0,29.96,WNW,291,0.0,1.0,55,0.00,,,0.00,,2013-07-23 09:33:00,
2013-07-23 03:42:00,58.0,42.0,29.96,WNW,291,0.0,1.0,55,0.00,,,0.00,,2013-07-23 09:42:00,
2013-07-23 03:53:00,58.0,42.0,29.96,ENE,59,0.0,0.0,55,0.00,,,0.00,,2013-07-23 09:53:00,
2013-07-23 04:01:00,58.0,42.0,29.96,ENE,59,0.0,0.0,55,0.00,,,0.00,,2013-07-23 10:01:00,
2013-07-23 04:11:00,58.0,42.0,29.96,ENE,59,0.0,0.0,55,0.00,,,0.00,,2013-07-23 10:11:00,
2013-07-23 04:21:00,58.0,41.0,29.97,ENE,76,0.0,1.0,54,0.00,,,0.00,,2013-07-23 10:21:00,
2013-07-23 04:32:00,58.0,41.0,29.97,ENE,76,0.0,1.0,54,0.00,,,0.00,,2013-07-23 10:32:00,
2013-07-23 04:44:00,58.0,41.0,29.97,ENE,76,0.0,1.0,54,0.00,,,0.00,,2013-07-23 10:44:00,
2013-07-23 04:52:00,58.0,41.0,29.98,ENE,76,0.0,0.0,54,0.00,,,0.00,,2013-07-23 10:52:00,
2013-07-23 05:01:00,58.0,41.0,29.98,ENE,76,0.0,0.0,54,0.00,,,0.00,,2013-07-23 11:01:00,
2013-07-23 05:11:00,58.0,41.0,29.98,ENE,76,0.0,0.0,54,0.00,,,0.00,,2013-07-23 11:11:00,
2013-07-23 05:32:00,57.0,41.0,29.99,ENE,76,0.0,1.0,54,0.00,,,0.00,,2013-07-23 11:32:00,
2013-07-23 05:43:00,57.0,41.0,29.99,ENE,76,0.0,1.0,54,0.00,,,0.00,,2013-07-23 11:43:00,
2013-07-23 05:52:00,57.0,42.0,29.98,ENE,76,0.0,0.0,57,0.00,,,0.00,,2013-07-23 11:52:00,
2013-07-23 06:01:00,57.0,42.0,29.98,ENE,76,0.0,0.0,57,0.00,,,0.00,,2013-07-23 12:01:00,
2013-07-23 06:11:00,57.0,42.0,29.98,ENE,76,0.0,0.0,57,0.00,,,0.00,,2013-07-23 12:11:00,
2013-07-23 06:22:00,55.0,40.0,29.99,ENE,76,0.0,1.0,57,0.00,,,0.00,,2013-07-23 12:22:00,
2013-07-23 06:33:00,55.0,40.0,29.99,ENE,76,0.0,1.0,57,0.00,,,0.00,,2013-07-23 12:33:00,
2013-07-23 06:43:00,55.0,40.0,29.99,ENE,76,0.0,1.0,57,0.00,,,0.00,,2013-07-23 12:43:00,
2013-07-23 07:11:00,55.0,41.0,30.01,ENE,76,0.0,0.0,60,0.00,,,0.00,,2013-07-23 13:11:00,
2013-07-23 07:22:00,54.0,41.0,30.01,ENE,76,0.0,0.0,62,0.00,,,0.00,,2013-07-23 13:22:00,
2013-07-23 07:32:00,54.0,41.0,30.01,ENE,76,0.0,0.0,62,0.00,,,0.00,,2013-07-23 13:32:00,
2013-07-23 07:43:00,54.0,41.0,30.01,ENE,76,0.0,0.0,62,0.00,,,0.00,,2013-07-23 13:43:00,
2013-07-23 07:52:00,55.0,43.0,30.02,ENE,76,0.0,0.0,65,0.00,,,0.00,,2013-07-23 13:52:00,
2013-07-23 08:02:00,55.0,43.0,30.02,ENE,76,0.0,0.0,65,0.00,,,0.00,,2013-07-23 14:02:00,
2013-07-23 08:12:00,55.0,43.0,30.02,ENE,76,0.0,0.0,65,0.00,,,0.00,,2013-07-23 14:12:00,
2013-07-23 08:32:00,58.0,45.0,30.02,ENE,76,0.0,0.0,61,0.00,,,0.00,,2013-07-23 14:32:00,
2013-07-23 08:44:00,58.0,45.0,30.02,ENE,76,0.0,0.0,61,0.00,,,0.00,,2013-07-23 14:44:00,
2013-07-23 08:53:00,63.0,50.0,30.01,ENE,76,0.0,0.0,63,0.00,,,0.00,,2013-07-23 14:53:00,
2013-07-23 09:03:00,63.0,50.0,30.01,ENE,76,0.0,0.0,63,0.00,,,0.00,,2013-07-23 15:03:00,
2013-07-23 09:11:00,63.0,50.0,30.01,ENE,76,0.0,0.0,63,0.00,,,0.00,,2013-07-23 15:11:00,
2013-07-23 09:32:00,72.0,49.0,30.04,ENE,76,0.0,1.0,44,0.00,,,0.00,,2013-07-23 15:32:00,
2013-07-23 09:43:00,72.0,49.0,30.04,ENE,76,0.0,1.0,44,0.00,,,0.00,,2013-07-23 15:43:00,
2013-07-23 09:52:00,76.0,46.0,30.04,ENE,76,0.0,2.0,34,0.00,,,0.00,,2013-07-23 15:52:00,
2013-07-23 10:01:00,76.0,46.0,30.04,ENE,76,0.0,2.0,34,0.00,,,0.00,,2013-07-23 16:01:00,
2013-07-23 10:12:00,76.0,46.0,30.04,ENE,76,0.0,2.0,34,0.00,,,0.00,,2013-07-23 16:12:00,
2013-07-23 10:33:00,79.0,42.0,30.04,NW,304,0.0,4.0,27,0.00,,,0.00,,2013-07-23 16:33:00,
2013-07-23 10:43:00,79.0,42.0,30.04,NW,304,0.0,4.0,27,0.00,,,0.00,,2013-07-23 16:43:00,
2013-07-23 10:52:00,81.0,42.0,30.05,NNE,26,0.0,4.0,25,0.00,,,0.00,,2013-07-23 16:52:00,
2013-07-23 11:42:00,81.0,41.0,30.05,NNE,30,1.0,5.0,24,0.00,,,0.00,,2013-07-23 17:42:00,
2013-07-23 11:55:00,84.0,42.0,30.03,SSE,157,0.0,4.0,23,0.00,,,0.00,,2013-07-23 17:55:00,
2013-07-23 12:01:00,84.0,42.0,30.03,SSE,157,0.0,4.0,23,0.00,,,0.00,,2013-07-23 18:01:00,
2013-07-23 12:11:00,84.0,42.0,30.03,SSE,157,0.0,4.0,23,0.00,,,0.00,,2013-07-23 18:11:00,
2013-07-23 12:48:00,85.0,44.0,30.03,East,88,0.0,5.0,24,0.00,,,0.00,,2013-07-23 18:48:00,
2013-07-23 12:55:00,85.0,41.0,30.03,ENE,62,1.0,5.0,21,0.00,,,0.00,,2013-07-23 18:55:00,
2013-07-23 13:01:00,85.0,41.0,30.03,ENE,62,1.0,5.0,21,0.00,,,0.00,,2013-07-23 19:01:00,
2013-07-23 13:12:00,85.0,41.0,30.03,ENE,62,1.0,5.0,21,0.00,,,0.00,,2013-07-23 19:12:00,
2013-07-23 13:32:00,86.0,39.0,30.02,ESE,114,2.0,5.0,19,0.00,,,0.00,,2013-07-23 19:32:00,
2013-07-23 13:47:00,86.0,39.0,30.02,ESE,114,2.0,5.0,19,0.00,,,0.00,,2013-07-23 19:47:00,
2013-07-23 14:57:00,89.0,38.0,30.01,East,100,2.0,5.0,17,0.00,,,0.00,,2013-07-23 20:57:00,
2013-07-23 15:13:00,89.0,38.0,30.01,East,100,2.0,5.0,17,0.00,,,0.00,,2013-07-23 21:13:00,
2013-07-23 15:32:00,90.0,39.0,30.01,NNW,348,0.0,6.0,17,0.00,,,0.00,,2013-07-23 21:32:00,
2013-07-23 15:47:00,90.0,39.0,30.01,NNW,348,0.0,6.0,17,0.00,,,0.00,,2013-07-23 21:47:00,
2013-07-23 15:56:00,88.0,42.0,30.00,East,99,2.0,5.0,20,0.00,,,0.00,,2013-07-23 21:56:00,
2013-07-23 16:01:00,88.0,42.0,30.00,East,99,2.0,5.0,20,0.00,,,0.00,,2013-07-23 22:01:00,
2013-07-23 16:11:00,88.0,42.0,30.00,East,99,2.0,5.0,20,0.00,,,0.00,,2013-07-23 22:11:00,
2013-07-23 17:02:00,90.0,33.0,29.99,ENE,73,2.0,6.0,13,0.00,,,0.00,,2013-07-23 23:02:00,
2013-07-23 18:50:00,87.0,30.0,29.96,SSW,212,1.0,6.0,13,0.00,,,0.00,,2013-07-24 00:50:00,
2013-07-23 21:02:00,79.0,33.0,29.98,WNW,296,0.0,0.0,19,0.00,,,0.00,,2013-07-24 03:02:00,
2013-07-23 21:11:00,79.0,33.0,29.98,WNW,296,0.0,0.0,19,0.00,,,0.00,,2013-07-24 03:11:00,
2013-07-23 21:32:00,75.0,38.0,29.97,WNW,296,0.0,0.0,26,0.00,,,0.00,,2013-07-24 03:32:00,
2013-07-23 21:46:00,75.0,38.0,29.97,WNW,296,0.0,0.0,26,0.00,,,0.00,,2013-07-24 03:46:00,
2013-07-23 21:55:00,70.0,38.0,30.00,WNW,296,0.0,1.0,31,0.00,,,0.00,,2013-07-24 03:55:00,
2013-07-23 22:01:00,70.0,38.0,30.00,WNW,296,0.0,1.0,31,0.00,,,0.00,,2013-07-24 04:01:00,
2013-07-23 22:11:00,70.0,38.0,30.00,WNW,296,0.0,1.0,31,0.00,,,0.00,,2013-07-24 04:11:00,
2013-07-23 22:32:00,68.0,35.0,29.99,WNW,296,0.0,1.0,30,0.00,,,0.00,,2013-07-24 04:32:00,
2013-07-23 22:43:00,68.0,35.0,29.99,WNW,296,0.0,1.0,30,0.00,,,0.00,,2013-07-24 04:43:00,
2013-07-23 22:52:00,66.0,34.0,30.00,WNW,296,0.0,0.0,31,0.00,,,0.00,,2013-07-24 04:52:00,
2013-07-23 23:02:00,66.0,34.0,30.00,WNW,296,0.0,0.0,31,0.00,,,0.00,,2013-07-24 05:02:00,
2013-07-23 23:11:00,66.0,34.0,30.00,WNW,296,0.0,0.0,31,0.00,,,0.00,,2013-07-24 05:11:00,
2013-07-23 23:22:00,63.0,36.0,30.00,WNW,296,0.0,0.0,37,0.00,,,0.00,,2013-07-24 05:22:00,
2013-07-23 23:32:00,63.0,36.0,30.00,WNW,296,0.0,0.0,37,0.00,,,0.00,,2013-07-24 05:32:00,
2013-07-23 23:43:00,63.0,36.0,30.00,WNW,296,0.0,0.0,37,0.00,,,0.00,,2013-07-24 05:43:00,
2013-07-23 23:52:00,62.0,36.0,29.99,WNW,296,0.0,0.0,38,0.00,,,0.00,,2013-07-24 05:52:00,